createdAt,value
2023-02-18T00:00:17.285Z,2.05
2023-02-18T00:05:22.121Z,3.03
2023-02-18T00:10:25.497Z,1.98
2023-02-18T00:15:28.713Z,1.95
2023-02-18T00:20:35.695Z,1.92
2023-02-18T00:25:38.938Z,1.77
2023-02-18T00:30:43.296Z,1.83
2023-02-18T00:35:48.079Z,1.33
2023-02-18T00:40:52.814Z,1.33
2023-02-18T00:45:56.092Z,1.20
2023-02-18T00:51:01.627Z,1.58
2023-02-18T00:56:06.014Z,2.95
2023-02-18T01:01:10.627Z,2.13
2023-02-18T01:06:15.976Z,2.07
2023-02-18T01:11:19.579Z,1.25
2023-02-18T01:16:23.844Z,1.30
2023-02-18T01:21:29.094Z,1.38
2023-02-18T01:26:32.313Z,1.15
2023-02-18T01:31:36.110Z,1.05
2023-02-18T01:36:40.720Z,1.35
2023-02-18T01:41:43.933Z,1.13
2023-02-18T01:46:48.192Z,1.75
2023-02-18T01:51:55.889Z,1.45
2023-02-18T01:57:03.368Z,0.80
2023-02-18T02:02:11.094Z,1.13
2023-02-18T02:07:16.230Z,2.08
2023-02-18T02:12:46.164Z,1.30
2023-02-18T02:17:59.036Z,1.27
2023-02-18T02:23:34.708Z,2.05
2023-02-18T02:29:18.032Z,2.97
2023-02-18T02:34:51.863Z,2.40
2023-02-18T02:40:05.871Z,1.98
2023-02-18T02:45:19.109Z,1.63
2023-02-18T02:50:30.704Z,1.50
2023-02-18T02:55:34.271Z,0.85
2023-02-18T03:00:50.550Z,1.25
2023-02-18T03:06:11.167Z,1.40
2023-02-18T03:11:17.623Z,2.60
2023-02-18T03:16:27.612Z,1.30
2023-02-18T03:21:36.142Z,0.90
2023-02-18T03:26:45.977Z,1.17
2023-02-18T03:31:54.581Z,1.60
2023-02-18T03:37:01.610Z,1.25
2023-02-18T03:42:05.477Z,1.23
2023-02-18T03:47:09.273Z,1.10
2023-02-18T03:52:13.941Z,0.98
2023-02-18T03:57:17.250Z,1.03
2023-02-18T04:02:20.363Z,2.40
2023-02-18T04:07:25.754Z,1.42
2023-02-18T04:17:32.873Z,1.50
2023-02-18T04:22:37.583Z,1.05
2023-02-18T04:27:40.839Z,1.00
2023-02-18T04:32:44.428Z,1.75
2023-02-18T04:37:49.291Z,1.20
2023-02-18T04:42:52.560Z,1.17
2023-02-18T04:47:55.804Z,1.00
2023-02-18T04:53:00.380Z,0.85
2023-02-18T04:58:04.110Z,0.70
2023-02-18T05:03:08.163Z,1.63
2023-02-18T05:08:13.075Z,1.10
2023-02-18T05:13:16.858Z,1.10
2023-02-18T05:18:20.462Z,1.48
2023-02-18T05:23:26.477Z,1.23
2023-02-18T05:28:29.676Z,2.03
2023-02-18T05:33:33.076Z,1.00
2023-02-18T05:38:37.732Z,1.20
2023-02-18T05:43:59.669Z,1.27
2023-02-18T05:49:03.031Z,1.42
2023-02-18T05:54:08.214Z,1.20
2023-02-18T05:59:11.585Z,0.85
2023-02-18T06:04:15.402Z,0.80
2023-02-18T06:09:20.121Z,1.60
2023-02-18T06:14:23.352Z,1.30
2023-02-18T06:19:27.858Z,0.87
2023-02-18T06:24:32.765Z,1.52
2023-02-18T06:34:40.705Z,1.20
2023-02-18T06:39:45.680Z,0.88
2023-02-18T06:44:49.369Z,0.75
2023-02-18T06:49:52.608Z,0.68
2023-02-18T06:54:57.174Z,0.68
2023-02-18T07:00:01.747Z,1.13
2023-02-18T07:05:05.961Z,1.17
2023-02-18T07:10:11.184Z,0.75
2023-02-18T07:15:14.945Z,1.00
2023-02-18T07:20:18.659Z,0.68
2023-02-18T07:25:23.905Z,0.98
2023-02-18T07:30:28.557Z,1.20
2023-02-18T07:35:32.052Z,0.98
2023-02-18T07:40:36.705Z,0.82
2023-02-18T07:45:40.487Z,1.08
2023-02-18T07:50:46.012Z,0.80
2023-02-18T07:55:50.737Z,1.95
2023-02-18T08:00:55.569Z,0.80
2023-02-18T08:05:59.014Z,0.90
2023-02-18T08:11:18.572Z,0.77
2023-02-18T08:16:23.133Z,0.98
2023-02-18T08:21:26.584Z,0.68
2023-02-18T08:26:31.650Z,1.20
2023-02-18T08:31:35.320Z,1.00
2023-02-18T08:36:38.842Z,1.10
2023-02-18T08:41:43.802Z,0.85
2023-02-18T08:46:48.392Z,1.37
2023-02-18T08:51:51.885Z,0.95
2023-02-18T08:57:00.359Z,0.60
2023-02-18T09:02:04.386Z,1.10
2023-02-18T09:07:07.908Z,0.93
2023-02-18T09:12:13.100Z,1.00
2023-02-18T09:17:16.549Z,1.70
2023-02-18T09:22:21.965Z,0.93
2023-02-18T09:27:26.793Z,1.10
2023-02-18T09:32:35.081Z,1.05
2023-02-18T09:37:41.519Z,0.60
2023-02-18T09:42:46.710Z,1.27
2023-02-18T09:47:51.163Z,1.25
2023-02-18T09:52:55.168Z,1.67
2023-02-18T09:58:02.658Z,1.33
2023-02-18T10:03:12.570Z,1.17
2023-02-18T10:08:23.218Z,2.22
2023-02-18T10:13:32.248Z,1.10
2023-02-18T10:18:41.608Z,1.65
2023-02-18T10:23:55.181Z,1.75
2023-02-18T10:29:00.069Z,1.67
2023-02-18T10:34:13.252Z,1.95
2023-02-18T10:39:39.560Z,1.40
2023-02-18T10:44:54.820Z,2.50
2023-02-18T10:50:00.709Z,1.98
2023-02-18T11:02:17.466Z,1.38
2023-02-18T11:07:25.812Z,1.60
2023-02-18T11:12:35.152Z,2.00
2023-02-18T11:17:43.282Z,2.33
2023-02-18T11:22:50.075Z,1.88
2023-02-18T11:27:57.153Z,2.13
2023-02-18T11:33:07.251Z,1.80
2023-02-18T11:38:22.769Z,1.80
2023-02-18T11:43:30.001Z,1.52
2023-02-18T11:48:34.876Z,1.65
2023-02-18T11:58:45.762Z,1.70
2023-02-18T12:03:56.379Z,1.85
2023-02-18T12:09:05.112Z,1.50
2023-02-18T12:14:14.776Z,1.98
2023-02-18T12:19:49.615Z,1.83
2023-02-18T12:25:13.831Z,1.80
2023-02-18T12:30:38.897Z,1.83
2023-02-18T12:41:22.005Z,1.90
2023-02-18T12:46:44.583Z,2.38
2023-02-18T12:52:03.049Z,2.90
2023-02-18T12:57:30.301Z,3.05
2023-02-18T13:02:56.959Z,3.05
2023-02-18T13:08:22.513Z,3.03
2023-02-18T13:13:29.710Z,2.17
2023-02-18T13:18:36.636Z,2.72
2023-02-18T13:23:50.475Z,2.17
2023-02-18T13:29:07.091Z,2.00
2023-02-18T13:34:18.898Z,2.10
2023-02-18T13:39:24.983Z,1.92
2023-02-18T13:45:07.402Z,1.65
2023-02-18T13:50:26.678Z,1.10
2023-02-18T13:55:39.528Z,1.25
2023-02-18T14:00:49.960Z,0.80
2023-02-18T14:05:56.852Z,0.80
2023-02-18T14:11:32.446Z,0.73
2023-02-18T14:17:09.435Z,1.02
2023-02-18T14:22:28.951Z,1.17
2023-02-18T14:27:40.026Z,1.05
2023-02-18T14:32:44.290Z,1.10
2023-02-18T14:38:28.105Z,1.03
2023-02-18T14:43:48.320Z,0.80
2023-02-18T14:49:06.861Z,0.85
2023-02-18T14:54:14.187Z,1.10
2023-02-18T14:59:19.889Z,0.95
2023-02-18T15:04:25.461Z,1.60
2023-02-18T15:09:29.229Z,1.70
2023-02-18T15:14:36.510Z,0.98
2023-02-18T15:19:41.801Z,0.95
2023-02-18T15:24:45.946Z,3.75
2023-02-18T15:29:52.230Z,1.00
2023-02-18T15:34:58.928Z,1.55
2023-02-18T15:40:02.644Z,1.50
2023-02-18T15:45:17.173Z,1.35
2023-02-18T15:50:23.945Z,1.00
2023-02-18T15:55:32.450Z,1.25
2023-02-18T16:00:41.249Z,2.38
2023-02-18T16:05:44.597Z,1.17
2023-02-18T16:10:53.183Z,0.85
2023-02-18T16:16:00.938Z,1.10
2023-02-18T16:21:22.094Z,0.85
2023-02-18T16:26:30.694Z,1.63
2023-02-18T16:31:38.443Z,1.75
2023-02-18T16:37:02.122Z,1.88
2023-02-18T16:42:10.280Z,1.80
2023-02-18T16:47:18.346Z,1.40
2023-02-18T16:52:22.512Z,1.10
2023-02-18T16:57:27.159Z,1.10
2023-02-18T17:02:32.146Z,1.57
2023-02-18T17:07:37.155Z,1.48
2023-02-18T17:12:42.807Z,1.23
2023-02-18T17:17:48.041Z,1.20
2023-02-18T17:22:51.914Z,1.87
2023-02-18T17:27:55.475Z,0.90
2023-02-18T17:33:03.250Z,1.27
2023-02-18T17:38:11.014Z,1.15
2023-02-18T17:43:16.790Z,4.00
2023-02-18T17:48:21.828Z,1.42
2023-02-18T17:53:25.158Z,1.83
2023-02-18T17:58:28.528Z,1.80
2023-02-18T18:03:33.279Z,2.08
2023-02-18T18:08:36.612Z,2.25
2023-02-18T18:13:39.975Z,1.30
2023-02-18T18:18:44.952Z,2.10
2023-02-18T18:23:48.678Z,2.63
2023-02-18T18:28:53.388Z,2.88
2023-02-18T18:33:58.698Z,4.03
2023-02-18T18:39:02.767Z,3.45
2023-02-18T18:44:06.403Z,6.30
2023-02-18T18:49:11.026Z,7.47
2023-02-18T18:54:14.318Z,5.72
2023-02-18T18:59:17.869Z,5.85
2023-02-18T19:04:22.746Z,3.05
2023-02-18T19:09:26.409Z,4.88
2023-02-18T19:14:29.787Z,3.60
2023-02-18T19:19:34.524Z,2.83
2023-02-18T19:24:37.835Z,1.92
2023-02-18T19:29:41.093Z,4.38
2023-02-18T19:34:45.819Z,3.20
2023-02-18T19:39:49.119Z,2.65
2023-02-18T19:44:55.720Z,1.52
2023-02-18T19:50:01.022Z,2.00
2023-02-18T19:55:05.712Z,2.20
2023-02-18T20:00:12.663Z,2.92
2023-02-18T20:05:20.418Z,3.38
2023-02-18T20:10:25.447Z,3.03
2023-02-18T20:15:28.937Z,2.63
2023-02-18T20:20:33.525Z,3.55
2023-02-18T20:25:39.260Z,3.30
2023-02-18T20:30:43.253Z,3.45
2023-02-18T20:35:56.403Z,8.20
2023-02-18T20:41:03.713Z,5.75
2023-02-18T20:46:10.792Z,3.75
2023-02-18T20:51:18.261Z,5.93
2023-02-18T20:56:22.000Z,5.13
2023-02-18T21:01:25.217Z,5.03
2023-02-18T21:06:30.169Z,2.95
2023-02-18T21:11:34.567Z,3.22
2023-02-18T21:16:41.328Z,4.27
2023-02-18T21:21:47.729Z,2.38
2023-02-18T21:26:50.983Z,2.13
2023-02-18T21:31:54.432Z,3.00
2023-02-18T21:36:59.300Z,2.83
2023-02-18T21:42:04.343Z,2.47
2023-02-18T21:47:07.737Z,2.33
2023-02-18T21:52:12.376Z,2.90
2023-02-18T21:57:18.578Z,2.27
2023-02-18T22:02:25.411Z,2.67
2023-02-18T22:07:30.803Z,5.57
2023-02-18T22:12:34.188Z,3.38
2023-02-18T22:17:37.517Z,3.58
2023-02-18T22:22:42.343Z,3.22
2023-02-18T22:27:46.740Z,3.55
2023-02-18T22:32:50.077Z,3.60
2023-02-18T22:37:54.926Z,6.22
2023-02-18T22:42:58.180Z,3.35
2023-02-18T22:48:01.492Z,3.40
2023-02-18T22:53:06.533Z,2.65
2023-02-18T22:58:09.818Z,3.35
2023-02-18T23:03:13.626Z,5.05
2023-02-18T23:08:18.413Z,2.22
2023-02-18T23:13:21.655Z,2.47
2023-02-18T23:18:25.651Z,1.95
2023-02-18T23:23:30.251Z,1.70
2023-02-18T23:28:47.616Z,1.60
2023-02-18T23:33:54.845Z,2.22
2023-02-18T23:39:01.639Z,2.25
2023-02-18T23:44:07.300Z,2.50
2023-02-18T23:49:15.002Z,2.95
2023-02-18T23:54:20.193Z,2.13
2023-02-18T23:59:23.434Z,1.90
